Time;durP1;ratioP1;P1;durP2;ratioP2;P2;SDS_P1;SDS_P2;PMS_P1;PMS_P2;Temp;Humidity;BMP_temperature;BMP_pressure;BME280_temperature;BME280_humidity;BME280_pressure;Samples;Min_cycle;Max_cycle;Signal;HPM_P1;HPM_P2
2022/03/19 00:01:01;;;;;;;;;4.00;4.00;;;;;11.65;40.96;103284.16;5019348;28;46625;-79
2022/03/19 00:03:28;;;;;;;;;3.00;3.00;;;;;11.62;40.51;103280.47;5017093;28;45411;-78
2022/03/19 00:05:53;;;;;;;;;4.00;4.00;;;;;11.59;40.53;103281.22;5037967;28;46970;-76
2022/03/19 00:08:19;;;;;;;;;5.00;4.00;;;;;11.52;40.67;103258.88;5002081;28;56959;-78
2022/03/19 00:10:44;;;;;;;;;8.00;4.00;;;;;11.62;40.51;103277.81;5014919;28;61394;-77
2022/03/19 00:13:10;;;;;;;;;3.00;3.00;;;;;11.50;40.49;103265.84;5022069;28;45378;-77
2022/03/19 00:15:37;;;;;;;;;3.00;3.00;;;;;11.58;40.76;103281.16;5005477;28;45452;-77
2022/03/19 00:18:05;;;;;;;;;5.00;3.67;;;;;11.57;40.72;103285.56;5020969;28;45334;-76
2022/03/19 00:20:31;;;;;;;;;4.33;3.67;;;;;11.58;40.38;103286.44;5018726;28;45943;-77
2022/03/19 00:22:57;;;;;;;;;4.00;1.67;;;;;11.55;40.54;103288.09;5036702;28;45486;-77
2022/03/19 00:25:22;;;;;;;;;5.67;4.33;;;;;11.53;40.50;103284.50;5037588;28;45612;-77
2022/03/19 00:27:48;;;;;;;;;7.67;5.67;;;;;11.50;40.43;103288.72;5038557;28;45610;-76
2022/03/19 00:30:13;;;;;;;;;4.00;2.33;;;;;11.46;40.15;103286.78;5021275;28;55937;-77
2022/03/19 00:32:39;;;;;;;;;5.00;3.67;;;;;11.49;40.58;103290.47;5016827;28;45313;-78
2022/03/19 00:35:04;;;;;;;;;11.33;5.67;;;;;11.50;40.15;103294.94;5037539;28;45338;-79
2022/03/19 00:37:32;;;;;;;;;5.33;4.33;;;;;11.47;40.17;103291.25;5021996;28;45535;-77
2022/03/19 00:39:57;;;;;;;;;6.33;5.33;;;;;11.44;40.35;103281.41;5021928;28;45592;-77
2022/03/19 00:42:22;;;;;;;;;8.67;5.00;;;;;11.45;40.39;103283.25;5019402;28;45419;-77
2022/03/19 00:44:48;;;;;;;;;7.67;5.00;;;;;11.46;40.47;103294.72;5036744;28;45945;-77
2022/03/19 00:47:13;;;;;;;;;7.33;6.33;;;;;11.41;40.37;103280.38;5001913;28;45636;-77
2022/03/19 00:49:39;;;;;;;;;6.33;5.00;;;;;11.40;40.11;103281.19;5016774;28;46797;-78
2022/03/19 00:52:04;;;;;;;;;6.33;5.00;;;;;11.40;40.11;103273.25;5004753;28;57041;-78
2022/03/19 00:54:30;;;;;;;;;5.00;4.00;;;;;11.38;40.11;103277.56;5018389;28;45338;-78
2022/03/19 00:56:55;;;;;;;;;9.33;4.00;;;;;11.38;40.11;103283.78;4997600;28;45306;-79
2022/03/19 00:59:20;;;;;;;;;4.00;4.00;;;;;11.36;40.35;103271.31;5017615;28;46271;-78
2022/03/19 01:01:46;;;;;;;;;4.00;3.00;;;;;11.32;40.05;103275.56;5018354;28;45493;-79
2022/03/19 01:04:11;;;;;;;;;4.00;2.67;;;;;11.34;40.21;103272.97;5004704;28;47124;-77
2022/03/19 01:06:37;;;;;;;;;3.33;3.33;;;;;11.24;40.28;103266.38;5018239;28;49018;-77
2022/03/19 01:09:02;;;;;;;;;4.00;4.00;;;;;11.32;40.21;103272.00;5017517;28;48746;-79
2022/03/19 01:11:28;;;;;;;;;4.00;3.00;;;;;11.20;40.21;103259.13;5038342;28;50047;-77
2022/03/19 01:13:54;;;;;;;;;4.67;3.67;;;;;11.27;40.16;103270.03;5016184;28;45494;-77
2022/03/19 01:16:19;;;;;;;;;3.00;3.00;;;;;11.18;40.09;103239.59;5013812;28;45626;-77
2022/03/19 01:18:51;;;;;;;;;2.00;2.00;;;;;11.16;40.04;103241.28;5003734;28;48262;-77
2022/03/19 01:21:17;;;;;;;;;2.00;2.00;;;;;11.16;39.85;103244.84;5023634;28;45547;-77
2022/03/19 01:23:42;;;;;;;;;3.00;1.00;;;;;11.17;40.07;103245.75;5027473;28;45471;-77
2022/03/19 01:26:08;;;;;;;;;2.33;1.67;;;;;11.15;40.09;103248.31;5018495;28;45243;-77
2022/03/19 01:28:33;;;;;;;;;3.00;2.00;;;;;11.17;40.05;103262.50;5014732;28;59885;-77
2022/03/19 01:30:58;;;;;;;;;5.00;2.00;;;;;11.16;39.43;103254.50;5004357;28;56618;-78
2022/03/19 01:33:24;;;;;;;;;2.00;2.00;;;;;11.12;39.88;103244.63;5014676;28;46025;-77
2022/03/19 01:35:49;;;;;;;;;3.00;3.00;;;;;11.12;39.54;103252.53;5004450;28;52513;-77
2022/03/19 01:38:15;;;;;;;;;2.33;1.67;;;;;11.05;39.82;103238.13;5053480;28;62244;-78
2022/03/19 01:40:40;;;;;;;;;4.00;2.33;;;;;11.04;39.57;103236.34;5024033;28;45549;-76
2022/03/19 01:43:05;;;;;;;;;2.00;2.00;;;;;11.14;39.86;103250.91;5026944;28;45787;-78
2022/03/19 01:45:31;;;;;;;;;2.67;2.00;;;;;11.11;39.35;103242.81;5016435;28;47131;-77
2022/03/19 01:47:56;;;;;;;;;3.00;3.00;;;;;11.08;39.57;103235.66;5019287;28;47528;-77
2022/03/19 01:50:22;;;;;;;;;2.67;2.00;;;;;11.06;39.86;103242.59;5024516;28;45375;-76
2022/03/19 01:52:48;;;;;;;;;4.33;2.33;;;;;11.04;39.15;103235.44;5007687;28;45437;-76
2022/03/19 01:55:14;;;;;;;;;4.00;3.00;;;;;11.03;39.43;103239.81;5021573;28;45603;-77
2022/03/19 01:57:41;;;;;;;;;2.00;2.00;;;;;11.05;39.32;103245.16;5034749;28;46347;-77
2022/03/19 02:00:08;;;;;;;;;4.33;2.33;;;;;10.98;39.66;103228.13;5007618;28;46214;-76
2022/03/19 02:02:34;;;;;;;;;4.67;2.00;;;;;10.99;39.54;103233.47;5024392;28;46598;-77
2022/03/19 02:05:01;;;;;;;;;4.00;1.00;;;;;10.93;40.26;103222.59;5004272;28;45437;-77
2022/03/19 02:07:27;;;;;;;;;3.00;2.00;;;;;10.94;39.64;103227.06;5001624;28;47723;-75
2022/03/19 02:09:52;;;;;;;;;2.67;2.67;;;;;10.88;39.83;103210.00;5021224;28;45272;-79
2022/03/19 02:12:18;;;;;;;;;3.00;2.00;;;;;10.92;39.76;103218.16;5023465;28;51624;-77
2022/03/19 02:14:44;;;;;;;;;3.33;2.67;;;;;10.89;39.76;103218.00;4999262;28;45592;-79
2022/03/19 02:17:10;;;;;;;;;3.00;2.00;;;;;10.91;39.86;103221.59;5003471;28;47555;-77
2022/03/19 02:19:48;;;;;;;;;4.00;3.00;;;;;10.81;40.08;103203.50;5004341;28;45622;-80
2022/03/19 02:22:14;;;;;;;;;5.33;2.00;;;;;10.87;39.76;103224.06;5011289;28;45361;-79
2022/03/19 02:27:23;;;;;;;;;4.00;2.33;;;;;10.81;39.85;103210.50;5034289;28;45425;-77
2022/03/19 02:29:48;;;;;;;;;3.00;2.00;;;;;10.80;40.14;103211.34;5017285;28;45409;-79
2022/03/19 02:32:14;;;;;;;;;2.00;2.00;;;;;10.79;40.07;103207.81;5002787;28;59965;-78
2022/03/19 02:34:39;;;;;;;;;3.00;3.00;;;;;10.80;40.00;103208.72;5020262;28;52455;-79
2022/03/19 02:37:05;;;;;;;;;5.00;3.33;;;;;10.78;40.13;103206.00;5032200;28;52295;-77
2022/03/19 02:39:33;;;;;;;;;4.00;4.00;;;;;10.75;39.96;103198.81;5006500;28;62365;-77
2022/03/19 02:42:06;;;;;;;;;3.67;3.00;;;;;10.73;40.00;103202.22;5021206;28;45333;-79
2022/03/19 02:44:31;;;;;;;;;3.67;3.33;;;;;10.63;39.98;103186.75;5000277;28;45560;-79
2022/03/19 02:46:58;;;;;;;;;7.00;2.00;;;;;10.71;39.98;103194.25;5011766;28;45437;-78
2022/03/19 02:49:24;;;;;;;;;5.00;4.00;;;;;10.58;40.27;103167.13;5006559;28;45529;-78
2022/03/19 02:51:50;;;;;;;;;5.33;3.00;;;;;10.66;40.32;103185.19;5023144;28;48565;-78
2022/03/19 02:54:17;;;;;;;;;3.00;3.00;;;;;10.63;40.24;103192.94;5007101;28;45365;-77
2022/03/19 02:56:43;;;;;;;;;3.00;3.00;;;;;10.67;40.23;103188.72;5007047;28;47507;-78
2022/03/19 02:59:09;;;;;;;;;3.67;3.67;;;;;10.54;40.15;103167.81;5024239;28;45865;-78
2022/03/19 03:01:35;;;;;;;;;5.00;4.00;;;;;10.63;40.51;103186.75;5029164;28;45297;-78
2022/03/19 03:04:01;;;;;;;;;5.67;4.00;;;;;10.55;40.47;103167.00;5003621;28;45618;-80
2022/03/19 03:06:26;;;;;;;;;5.00;2.67;;;;;10.64;40.18;103186.81;5016844;28;48331;-79
2022/03/19 03:08:51;;;;;;;;;4.00;4.00;;;;;10.52;40.44;103174.78;5003541;28;46122;-77
2022/03/19 03:11:17;;;;;;;;;5.33;4.00;;;;;10.58;40.47;103181.25;5015388;28;45335;-78
2022/03/19 03:13:43;;;;;;;;;7.50;4.00;;;;;10.60;40.53;103186.59;5004805;28;45514;-78
2022/03/19 03:16:08;;;;;;;;;8.50;5.50;;;;;10.60;40.35;103181.31;5003254;28;60114;-77
2022/03/19 03:18:34;;;;;;;;;4.67;4.67;;;;;10.61;40.69;103188.44;5017166;28;46961;-77
2022/03/19 03:20:59;;;;;;;;;4.33;4.33;;;;;10.59;40.71;103187.44;5017017;28;45262;-80
2022/03/19 03:23:26;;;;;;;;;10.00;4.75;;;;;10.47;40.69;103162.25;5022311;28;53309;-78
2022/03/19 03:25:52;;;;;;;;;8.33;7.33;;;;;10.55;40.85;103177.56;5006201;28;48212;-78
2022/03/19 03:28:17;;;;;;;;;8.33;7.00;;;;;10.55;40.81;103174.94;5002817;28;46365;-79
2022/03/19 03:30:42;;;;;;;;;4.50;4.50;;;;;10.54;40.82;103178.38;5012837;28;46040;-78
2022/03/19 03:33:08;;;;;;;;;11.00;8.00;;;;;10.51;41.00;103171.22;5022480;28;45710;-79
2022/03/19 03:35:33;;;;;;;;;7.75;7.00;;;;;10.51;40.98;103170.31;5017928;28;45832;-79
2022/03/19 03:37:59;;;;;;;;;5.75;4.00;;;;;10.48;40.94;103164.03;5003815;28;45516;-78
2022/03/19 03:40:24;;;;;;;;;7.00;4.75;;;;;10.46;41.11;103160.44;5022681;28;47692;-79
2022/03/19 03:42:49;;;;;;;;;9.25;7.25;;;;;10.46;41.17;103149.88;5005808;28;45460;-78
2022/03/19 03:45:15;;;;;;;;;7.50;5.25;;;;;10.47;41.29;103159.59;5005346;28;60271;-78
2022/03/19 03:47:40;;;;;;;;;9.50;7.75;;;;;10.45;41.15;103148.06;5016443;28;55938;-78
2022/03/19 03:50:06;;;;;;;;;10.75;7.00;;;;;10.39;41.28;103145.13;5033247;28;45794;-78
2022/03/19 03:52:31;;;;;;;;;6.50;5.25;;;;;10.37;41.15;103143.22;5019307;28;45404;-78
2022/03/19 03:54:57;;;;;;;;;11.25;7.00;;;;;10.35;41.56;103148.44;5018915;28;46523;-77
2022/03/19 03:57:22;;;;;;;;;10.50;7.50;;;;;10.38;41.66;103153.84;5020734;28;45373;-77
2022/03/19 03:59:51;;;;;;;;;12.00;9.00;;;;;10.35;41.67;103147.53;5019159;28;47366;-78
2022/03/19 04:02:16;;;;;;;;;10.00;9.00;;;;;10.33;41.74;103147.44;5032975;28;45341;-78
2022/03/19 04:04:42;;;;;;;;;10.25;8.75;;;;;10.35;41.95;103144.91;4997126;28;48292;-78
2022/03/19 04:07:07;;;;;;;;;13.00;9.25;;;;;10.33;41.83;103144.81;5005811;28;45519;-78
2022/03/19 04:09:33;;;;;;;;;10.00;9.00;;;;;10.30;41.93;103142.03;5003185;28;54229;-78
2022/03/19 04:11:58;;;;;;;;;12.50;9.50;;;;;10.32;42.00;103157.94;5012723;28;45358;-77
2022/03/19 04:14:24;;;;;;;;;14.00;11.50;;;;;10.32;42.16;103150.03;5017740;28;47791;-79
2022/03/19 04:16:49;;;;;;;;;13.25;10.50;;;;;10.29;42.16;103150.78;5004433;28;45298;-78
2022/03/19 04:19:15;;;;;;;;;13.75;11.25;;;;;10.27;42.50;103148.88;5006041;28;45431;-77
2022/03/19 04:21:40;;;;;;;;;12.50;10.75;;;;;10.26;42.67;103150.63;5021189;28;46725;-78
2022/03/19 04:24:06;;;;;;;;;13.00;9.00;;;;;10.17;42.51;103131.66;5003309;28;57168;-78
2022/03/19 04:26:31;;;;;;;;;14.75;10.25;;;;;10.21;42.45;103150.34;5032454;28;58131;-78
2022/03/19 04:28:56;;;;;;;;;15.25;14.50;;;;;10.23;42.79;103156.69;5003517;28;53982;-78
2022/03/19 04:31:22;;;;;;;;;16.00;11.00;;;;;10.15;42.75;103142.13;5004788;28;45546;-78
2022/03/19 04:33:48;;;;;;;;;17.00;14.25;;;;;10.19;43.05;103148.47;5021552;28;46590;-77
2022/03/19 04:36:32;;;;;;;;;17.75;13.25;;;;;10.15;42.68;103147.41;5018530;28;45319;-78
2022/03/19 04:39:02;;;;;;;;;17.75;14.25;;;;;10.14;43.27;103147.34;5008075;28;45565;-77
2022/03/19 04:41:28;;;;;;;;;19.25;12.75;;;;;10.16;42.95;103158.88;5015107;28;45369;-77
2022/03/19 04:43:53;;;;;;;;;17.75;12.00;;;;;10.13;43.27;103150.81;5019116;28;46470;-77
2022/03/19 04:46:19;;;;;;;;;20.00;16.00;;;;;10.09;43.44;103143.56;5020196;28;56549;-77
2022/03/19 04:48:45;;;;;;;;;15.50;13.00;;;;;10.14;43.20;103156.16;5018460;28;45368;-77
2022/03/19 04:51:14;;;;;;;;;15.75;12.75;;;;;10.12;43.81;103156.91;5020269;28;45342;-76
2022/03/19 04:53:41;;;;;;;;;16.50;14.00;;;;;10.08;43.76;103145.31;5001119;28;47639;-77
2022/03/19 04:56:06;;;;;;;;;21.00;14.00;;;;;10.10;43.83;103151.56;5004246;28;45348;-79
2022/03/19 04:58:34;;;;;;;;;20.50;14.75;;;;;10.06;43.69;103138.13;5004304;28;45947;-77
2022/03/19 05:01:00;;;;;;;;;19.00;14.25;;;;;10.05;43.70;103146.88;5002079;28;45253;-78
2022/03/19 05:03:25;;;;;;;;;22.00;15.50;;;;;10.04;43.92;103139.78;5003498;28;45747;-78
2022/03/19 05:05:51;;;;;;;;;21.75;18.50;;;;;10.03;44.16;103138.91;5036667;28;50988;-78
2022/03/19 05:08:17;;;;;;;;;20.75;15.75;;;;;10.03;44.14;103136.25;5021859;28;45381;-77
2022/03/19 05:13:27;;;;;;;;;14.75;6.75;;;;;9.98;44.21;103138.66;5032347;28;45277;-78
2022/03/19 05:15:52;;;;;;;;;17.25;15.00;;;;;9.97;44.40;103136.84;5001186;28;46383;-77
2022/03/19 05:18:18;;;;;;;;;20.75;18.00;;;;;9.99;44.32;103139.56;5014171;28;45586;-78
2022/03/19 05:20:44;;;;;;;;;21.25;17.50;;;;;9.91;44.62;103128.63;5020448;28;45413;-77
2022/03/19 05:23:10;;;;;;;;;24.25;19.00;;;;;9.93;44.92;103148.06;5001398;28;48154;-77
2022/03/19 05:25:35;;;;;;;;;18.25;16.25;;;;;9.91;44.76;103139.19;5034420;28;45308;-79
2022/03/19 05:28:01;;;;;;;;;23.00;18.50;;;;;9.88;45.13;103125.81;5004045;28;50385;-78
2022/03/19 05:30:26;;;;;;;;;19.75;17.25;;;;;9.88;44.81;103146.94;5018060;28;45646;-78
2022/03/19 05:32:52;;;;;;;;;19.50;15.00;;;;;9.90;45.10;103142.63;5000081;28;48311;-78
2022/03/19 05:35:18;;;;;;;;;21.50;18.50;;;;;9.79;45.10;103133.25;5020535;28;46374;-77
2022/03/19 05:37:44;;;;;;;;;25.00;20.00;;;;;9.77;45.17;103124.38;5019494;28;45467;-78
2022/03/19 05:40:10;;;;;;;;;24.50;16.50;;;;;9.85;45.39;103148.50;5131922;22;47405;-77
2022/03/19 05:42:36;;;;;;;;;18.25;17.50;;;;;9.79;45.99;103145.56;4995177;28;47497;-79
2022/03/19 05:45:01;;;;;;;;;25.00;19.75;;;;;9.70;45.26;103122.25;5013318;28;45294;-78
2022/03/19 05:47:27;;;;;;;;;24.50;21.50;;;;;9.82;45.40;103148.38;4996684;28;45380;-77
2022/03/19 05:49:52;;;;;;;;;29.25;19.75;;;;;9.81;45.19;103150.09;4994741;28;51437;-78
2022/03/19 05:52:17;;;;;;;;;26.00;22.50;;;;;9.78;45.80;103146.38;4996387;28;48384;-78
2022/03/19 05:54:43;;;;;;;;;24.50;20.00;;;;;9.73;46.00;103139.97;4990147;28;45390;-77
2022/03/19 05:57:08;;;;;;;;;28.00;24.00;;;;;9.75;46.18;103146.22;5008345;28;50808;-77
2022/03/19 05:59:34;;;;;;;;;26.50;22.50;;;;;9.67;45.98;103137.91;5008051;28;49985;-79
2022/03/19 06:01:59;;;;;;;;;26.50;21.50;;;;;9.73;46.40;103150.53;5011485;28;46442;-78
2022/03/19 06:04:25;;;;;;;;;33.00;26.00;;;;;9.66;45.99;103139.66;4995492;28;45586;-78
2022/03/19 06:06:50;;;;;;;;;22.00;21.75;;;;;9.68;46.27;103145.91;5013124;28;45625;-78
2022/03/19 06:09:16;;;;;;;;;32.50;22.00;;;;;9.72;46.35;103152.25;5014009;28;52114;-77
2022/03/19 06:11:43;;;;;;;;;24.25;22.00;;;;;9.69;46.55;103141.53;4999636;28;48147;-78
2022/03/19 06:14:08;;;;;;;;;25.75;22.25;;;;;9.69;46.20;103147.75;5000869;28;46112;-78
2022/03/19 06:16:33;;;;;;;;;27.25;20.75;;;;;9.65;46.40;103134.31;5000463;28;45327;-78
2022/03/19 06:18:59;;;;;;;;;35.00;29.75;;;;;9.69;46.37;103154.72;4997798;28;45488;-77
2022/03/19 06:21:24;;;;;;;;;32.25;26.50;;;;;9.73;47.22;103159.34;5011361;28;59486;-76
2022/03/19 06:23:50;;;;;;;;;37.25;28.00;;;;;9.64;46.73;103135.09;4992829;28;45938;-73
2022/03/19 06:26:16;;;;;;;;;46.00;27.75;;;;;9.72;47.25;103146.97;5013879;28;53746;-75
2022/03/19 06:28:41;;;;;;;;;36.25;32.75;;;;;9.75;47.30;103152.44;5010770;28;45658;-76
2022/03/19 06:31:07;;;;;;;;;39.50;31.25;;;;;9.77;47.16;103153.41;5011302;28;59396;-76
2022/03/19 06:33:32;;;;;;;;;39.00;32.00;;;;;9.66;47.54;103146.66;5011445;28;45262;-76
2022/03/19 06:38:42;;;;;;;;;39.00;31.75;;;;;9.77;47.76;103155.13;5007113;28;45275;-75
2022/03/19 06:41:07;;;;;;;;;34.75;29.75;;;;;9.78;48.31;103156.94;5054885;28;61539;-75
2022/03/19 06:43:33;;;;;;;;;43.00;35.25;;;;;9.77;48.29;103148.13;5058185;28;45419;-75
2022/03/19 06:45:58;;;;;;;;;43.00;35.50;;;;;9.57;47.79;103111.91;5035273;28;45656;-76
2022/03/19 06:48:24;;;;;;;;;43.75;36.75;;;;;9.79;47.99;103146.47;5021923;28;45391;-76
2022/03/19 06:50:50;;;;;;;;;34.75;31.25;;;;;9.77;47.77;103134.94;5034271;28;46556;-76
2022/03/19 06:53:15;;;;;;;;;51.00;37.00;;;;;9.75;48.16;103126.03;5047923;28;52439;-75
2022/03/19 06:55:41;;;;;;;;;45.25;38.50;;;;;9.87;48.26;103150.41;5016814;28;46180;-76
2022/03/19 06:58:06;;;;;;;;;47.00;39.25;;;;;9.80;48.80;103136.81;5051741;28;45483;-75
2022/03/19 07:00:31;;;;;;;;;52.00;36.75;;;;;9.90;49.21;103155.81;5032694;28;61355;-75
2022/03/19 07:02:57;;;;;;;;;49.75;37.25;;;;;9.83;48.42;103134.34;5049996;28;60662;-75
2022/03/19 07:05:26;;;;;;;;;46.00;39.25;;;;;9.93;48.39;103134.88;5034858;28;45498;-75
2022/03/19 07:07:53;;;;;;;;;48.50;36.25;;;;;9.93;49.15;103139.25;5047091;28;45247;-75
2022/03/19 07:10:19;;;;;;;;;55.25;38.50;;;;;9.98;49.20;103148.31;5012168;28;48656;-75
2022/03/19 07:12:52;;;;;;;;;53.00;40.25;;;;;10.01;48.86;103152.81;5055258;28;45562;-75
2022/03/19 07:15:19;;;;;;;;;50.50;40.25;;;;;10.04;49.33;103150.34;5044682;28;45437;-76
2022/03/19 07:17:45;;;;;;;;;51.00;38.50;;;;;10.04;48.73;103145.06;5034005;28;45616;-75
2022/03/19 07:20:11;;;;;;;;;59.25;44.75;;;;;10.00;49.38;103136.09;5047195;28;46080;-75
2022/03/19 07:22:51;;;;;;;;;48.75;39.75;;;;;10.13;48.95;103156.09;5034385;28;45610;-75
2022/03/19 07:25:17;;;;;;;;;50.00;39.00;;;;;10.15;49.22;103149.16;5040003;28;45720;-75
2022/03/19 07:27:43;;;;;;;;;55.75;41.25;;;;;10.14;48.90;103142.97;5036712;28;45634;-75
2022/03/19 07:30:09;;;;;;;;;54.75;39.75;;;;;10.20;49.45;103153.84;5044457;28;46330;-75
2022/03/19 07:32:34;;;;;;;;;57.00;41.25;;;;;10.16;49.16;103130.75;5019093;28;45571;-76
2022/03/19 07:35:00;;;;;;;;;55.00;43.25;;;;;10.27;49.39;103143.59;5010437;28;45448;-76
2022/03/19 07:37:26;;;;;;;;;56.00;42.50;;;;;10.21;49.09;103139.78;5058179;28;45443;-76
2022/03/19 07:39:51;;;;;;;;;56.25;41.50;;;;;10.34;49.24;103149.28;5035685;28;46820;-76
2022/03/19 07:42:16;;;;;;;;;54.00;39.25;;;;;10.35;49.78;103145.81;5020852;28;55201;-77
2022/03/19 07:44:42;;;;;;;;;61.75;45.50;;;;;10.39;49.63;103141.59;5038199;28;46531;-76
2022/03/19 07:47:07;;;;;;;;;61.25;43.25;;;;;10.38;49.40;103130.09;5032637;28;45574;-75
2022/03/19 07:49:33;;;;;;;;;61.75;43.75;;;;;10.42;49.84;103139.06;5050693;28;62363;-75
2022/03/19 07:51:58;;;;;;;;;63.50;46.25;;;;;10.46;49.39;103139.31;5046882;28;54406;-75
2022/03/19 07:54:27;;;;;;;;;58.25;42.50;;;;;10.48;50.43;103139.38;5022942;28;45755;-76
2022/03/19 07:56:53;;;;;;;;;44.00;39.50;;;;;10.53;49.60;103136.94;5028189;28;45361;-75
2022/03/19 07:59:19;;;;;;;;;56.25;43.25;;;;;10.57;49.64;103139.81;5037320;28;46433;-76
2022/03/19 08:01:44;;;;;;;;;53.50;43.50;;;;;10.60;49.86;103149.63;5049461;28;45463;-76
2022/03/19 08:04:09;;;;;;;;;64.00;45.00;;;;;10.59;49.79;103134.59;5024856;28;55084;-73
2022/03/19 08:06:36;;;;;;;;;64.00;48.25;;;;;10.64;50.44;103138.38;5030977;28;54622;-77
2022/03/19 08:09:01;;;;;;;;;58.50;44.25;;;;;10.65;50.38;103141.09;5021325;28;46817;-80
2022/03/19 08:11:27;;;;;;;;;59.50;47.50;;;;;10.55;51.03;103117.72;5052197;28;45576;-78
2022/03/19 08:13:52;;;;;;;;;60.25;44.75;;;;;10.65;51.19;103141.09;4998817;28;57422;-76
2022/03/19 08:16:17;;;;;;;;;59.00;44.00;;;;;10.68;50.49;103132.41;5033177;28;45521;-76
2022/03/19 08:18:44;;;;;;;;;67.50;48.00;;;;;10.69;50.51;103129.81;5045711;28;51343;-76
2022/03/19 08:21:10;;;;;;;;;54.75;43.25;;;;;10.71;50.79;103135.22;5037742;28;45417;-77
2022/03/19 08:23:35;;;;;;;;;68.00;51.00;;;;;10.75;50.60;103135.41;5050785;28;50627;-77
2022/03/19 08:26:01;;;;;;;;;65.00;45.75;;;;;10.67;51.63;103118.28;5051848;28;45498;-76
2022/03/19 08:28:27;;;;;;;;;56.75;45.50;;;;;10.64;51.61;103120.78;5029088;28;46227;-77
2022/03/19 08:30:52;;;;;;;;;66.50;47.75;;;;;10.72;51.79;103129.97;5033441;28;45494;-75
2022/03/19 08:33:18;;;;;;;;;65.25;48.75;;;;;10.74;51.89;103122.13;5051306;28;46648;-77
2022/03/19 08:35:43;;;;;;;;;61.00;46.50;;;;;10.67;51.82;103097.16;5048312;28;50908;-76
2022/03/19 08:40:53;;;;;;;;;64.75;48.00;;;;;10.89;50.86;103109.63;5031788;28;45399;-76
2022/03/19 08:43:18;;;;;;;;;62.50;47.00;;;;;10.96;50.48;103124.91;5043849;28;45758;-76
2022/03/19 08:45:44;;;;;;;;;62.00;49.50;;;;;11.02;50.59;103114.66;5052852;28;45553;-74
2022/03/19 08:48:09;;;;;;;;;62.50;45.00;;;;;11.10;50.79;103120.28;5034304;28;57425;-74
2022/03/19 08:50:35;;;;;;;;;63.50;47.25;;;;;11.18;50.33;103117.97;5047741;28;45258;-75
2022/03/19 08:53:00;;;;;;;;;69.00;49.50;;;;;11.26;50.22;103119.22;5050337;28;45487;-75
2022/03/19 08:55:28;;;;;;;;;64.75;49.75;;;;;11.32;50.03;103115.97;5054631;28;53682;-75
2022/03/19 08:58:00;;;;;;;;;61.50;47.75;;;;;11.26;50.64;103098.06;5032352;28;60839;-75
2022/03/19 09:00:25;;;;;;;;;65.50;47.50;;;;;11.43;49.99;103115.59;5037620;28;45400;-76
2022/03/19 09:02:50;;;;;;;;;60.00;46.25;;;;;11.49;49.78;103117.59;5054103;28;45379;-75
2022/03/19 09:05:16;;;;;;;;;65.50;50.00;;;;;11.51;49.72;103100.97;5051614;28;45953;-76
2022/03/19 09:07:41;;;;;;;;;64.00;47.50;;;;;11.59;49.73;103113.63;5054976;28;46015;-75
2022/03/19 09:10:07;;;;;;;;;65.25;49.75;;;;;11.65;49.94;103108.59;5020340;28;60716;-76
2022/03/19 09:12:32;;;;;;;;;63.00;48.25;;;;;11.63;49.75;103099.69;5011414;28;45418;-74
2022/03/19 09:14:58;;;;;;;;;62.00;46.50;;;;;11.78;49.51;103103.00;5034347;28;45476;-75
2022/03/19 09:17:23;;;;;;;;;59.25;45.25;;;;;11.83;49.45;103109.41;5036431;28;58101;-75
2022/03/19 09:19:49;;;;;;;;;59.00;46.50;;;;;11.90;49.71;103115.88;5019220;28;46015;-75
2022/03/19 09:22:14;;;;;;;;;59.75;47.00;;;;;11.94;49.55;103108.13;5034046;28;46087;-75
2022/03/19 09:24:39;;;;;;;;;62.00;48.75;;;;;11.91;49.47;103092.09;5002775;28;45504;-75
2022/03/19 09:27:05;;;;;;;;;62.75;47.25;;;;;11.98;49.36;103094.16;5049660;28;45586;-76
2022/03/19 09:36:24;;;;;;;;;67.25;50.50;;;;;12.23;49.10;103079.28;5052620;28;45513;-75
2022/03/19 09:38:49;;;;;;;;;65.25;46.50;;;;;12.36;48.91;103086.88;5017813;28;45639;-76
2022/03/19 09:41:15;;;;;;;;;61.00;48.25;;;;;12.41;48.80;103090.63;5013605;28;45401;-74
2022/03/19 09:43:41;;;;;;;;;63.75;49.50;;;;;12.49;48.49;103083.88;5008104;28;45283;-76
2022/03/19 09:46:07;;;;;;;;;64.50;47.25;;;;;12.55;48.54;103086.75;5041310;28;47077;-76
2022/03/19 09:48:32;;;;;;;;;65.25;50.00;;;;;12.61;48.34;103093.13;5058844;28;45436;-74
2022/03/19 09:50:58;;;;;;;;;64.25;47.75;;;;;12.59;48.67;103064.81;5033370;28;45554;-76
2022/03/19 09:53:24;;;;;;;;;64.25;49.25;;;;;12.61;48.63;103051.63;5018025;28;45417;-75
2022/03/19 09:55:53;;;;;;;;;65.00;48.25;;;;;12.82;47.83;103073.63;5038201;28;45578;-75
2022/03/19 09:58:19;;;;;;;;;63.75;48.75;;;;;12.84;48.33;103055.16;5024072;28;46672;-75
2022/03/19 10:00:44;;;;;;;;;61.75;47.00;;;;;12.92;48.00;103042.19;5024463;28;45513;-74
2022/03/19 10:03:11;;;;;;;;;63.25;48.25;;;;;13.07;47.71;103063.97;5037425;28;50718;-76
2022/03/19 10:08:38;;;;;;;;;60.50;46.75;;;;;13.16;46.77;103052.78;5058201;28;45390;-74
2022/03/19 10:11:03;;;;;;;;;63.75;48.00;;;;;13.28;46.43;103067.41;5040653;28;45525;-75
2022/03/19 10:13:28;;;;;;;;;59.50;46.50;;;;;13.34;46.14;103053.47;5057718;28;45955;-76
2022/03/19 10:15:54;;;;;;;;;68.00;48.50;;;;;13.38;46.41;103042.13;5028393;28;52983;-74
2022/03/19 10:18:26;;;;;;;;;64.00;47.50;;;;;13.44;46.35;103041.44;5016088;28;46366;-75
2022/03/19 10:20:53;;;;;;;;;58.50;44.75;;;;;13.53;45.66;103049.69;5024025;28;45254;-75
2022/03/19 10:23:35;;;;;;;;;58.50;46.25;;;;;13.53;45.21;103023.13;5021645;28;45269;-76
2022/03/19 10:26:01;;;;;;;;;57.50;45.50;;;;;13.68;44.78;103041.34;5018516;28;45275;-76
2022/03/19 10:28:31;;;;;;;;;63.50;48.00;;;;;13.72;44.18;103037.94;5021031;28;46256;-75
2022/03/19 10:30:56;;;;;;;;;57.75;45.50;;;;;13.68;44.06;103022.75;5031483;28;45466;-75
2022/03/19 10:33:27;;;;;;;;;64.00;47.50;;;;;13.81;44.52;103025.00;5037114;28;45342;-75
2022/03/19 10:35:52;;;;;;;;;55.75;45.75;;;;;13.89;44.57;103023.47;5039620;28;45601;-75
2022/03/19 10:38:19;;;;;;;;;58.75;46.00;;;;;13.94;44.36;103015.66;5019285;28;61912;-75
2022/03/19 10:40:47;;;;;;;;;57.25;45.25;;;;;14.03;44.22;103026.56;5038215;28;45404;-75
2022/03/19 10:43:13;;;;;;;;;54.25;42.25;;;;;14.10;43.37;103023.25;5040243;28;45415;-74
2022/03/19 10:45:43;;;;;;;;;53.75;44.00;;;;;14.17;43.49;103030.59;5029008;28;45482;-75
2022/03/19 10:48:09;;;;;;;;;54.50;44.50;;;;;14.23;43.41;103019.25;5051726;28;46114;-74
2022/03/19 10:50:34;;;;;;;;;60.25;44.50;;;;;14.24;42.65;103008.66;5018723;28;45593;-76
2022/03/19 10:53:00;;;;;;;;;56.00;42.50;;;;;14.13;41.79;102989.72;5022838;28;45361;-76
2022/03/19 10:55:26;;;;;;;;;57.00;42.00;;;;;14.39;41.13;103019.75;5038072;28;45402;-74
2022/03/19 10:57:52;;;;;;;;;58.00;44.25;;;;;14.43;41.54;103015.41;5019806;28;48222;-76
2022/03/19 11:00:19;;;;;;;;;56.25;41.75;;;;;14.53;42.08;103016.63;5037512;28;45364;-76
2022/03/19 11:02:45;;;;;;;;;59.00;44.25;;;;;14.57;42.24;103011.44;5028513;28;45297;-75
2022/03/19 11:05:12;;;;;;;;;53.25;43.25;;;;;14.55;41.88;102998.97;5034978;28;45394;-76
2022/03/19 11:07:42;;;;;;;;;58.50;45.00;;;;;14.66;41.75;102998.44;5022991;28;48503;-77
2022/03/19 11:10:07;;;;;;;;;52.00;41.00;;;;;14.72;41.49;103002.13;5033189;28;45655;-75
2022/03/19 11:12:33;;;;;;;;;55.00;41.50;;;;;14.74;40.25;102981.78;5021430;28;45439;-74
2022/03/19 11:14:59;;;;;;;;;38.50;32.00;;;;;14.86;48.11;103004.31;5038167;28;45556;-79
2022/03/19 11:17:30;;;;;;;;;44.50;36.25;;;;;14.94;43.91;102996.53;5019703;28;45732;-76
2022/03/19 11:20:04;;;;;;;;;59.25;42.50;;;;;15.09;42.75;102981.00;5052979;28;45511;-75
2022/03/19 11:22:50;;;;;;;;;54.25;42.75;;;;;15.23;39.97;102991.09;5038464;28;45306;-77
2022/03/19 11:25:40;;;;;;;;;54.00;44.00;;;;;15.27;38.95;102985.91;5028456;28;45475;-78
2022/03/19 11:28:07;;;;;;;;;51.75;41.25;;;;;15.29;39.80;102975.31;5023286;28;46511;-74
2022/03/19 11:30:37;;;;;;;;;54.00;40.75;;;;;15.39;39.47;102975.59;5035498;28;45509;-79
2022/03/19 11:33:14;;;;;;;;;55.75;43.50;;;;;15.49;39.64;102970.47;5054592;28;45464;-76